Terminal Aerodrome Forecast
Issued by NWS

Home | Current Version | Previous Version | Text Only | Print | Product List | Glossary On
Versions: 1 2 3 4 5 6 7 8 9 10 11 12 13 14
000
FTUS44 KBMX 102300
TAFTOI
TAF
KTOI 102321Z 1100/1124 27006KT P6SM VCSH SCT040
     FM110100 VRB03KT P6SM SCT050
     FM110800 00000KT 4SM BR SCT015
      TEMPO 1110/1112 2SM BR
     FM111400 34004KT P6SM SCT030=

USA.gov is the U.S. government's official web portal to all federal, state and local government web resources and services.